• Join FlightAware (Why Join?)
  • Login
  • US Flag 
09:33PM EDT


 

Airport Tracker/Info


-or-


 

Live Flight TrackerFlight Track Log ✈ N415JA ✈ 27-Aug-2013 ✈ KTEB - KAPF

Flight Track Log - Related Links

Times and Time Zones

All times are in EDT time to prevent confusion due to time zone crossing. See the N415JA flight status page for this flight to view local times or setup timezone preferences in your user account.

Time Position Orientation Groundspeed Altitude Reporting Facility
EDT Latitude Longitude Course Direction KTS MPH feet Rate Location/Type
02:22PM 40.9000 -74.0333 270° West 189 217 2,000  Level New York TRACON
02:23PM 40.9000 -74.1000 270° West 232 267 3,500 1,740 Climbing New York TRACON
02:24PM 40.8333 -74.1333 201° Southwest 269 310 5,500 1,620 Climbing New York TRACON
02:25PM 40.7667 -74.1667 201° Southwest 290 334 6,800 2,400 Climbing New York TRACON
02:27PM 40.6478 -74.2556 210° Southwest 310 357 11,900 2,700 Climbing New York Center
02:28PM 40.5744 -74.2656 186° South 298 343 14,000 1,800 Climbing New York Center
02:29PM 40.4817 -74.2336 165° South 322 371 15,600 1,500 Climbing New York Center
02:30PM 40.3725 -74.1872 162° South 368 423 17,000 1,380 Climbing New York Center
02:31PM 40.2706 -74.1850 179° South 395 455 18,400 1,380 Climbing New York Center
02:32PM 40.1603 -74.2528 205° Southwest 385 443 19,800 1,560 Climbing New York Center
02:34PM 39.9458 -74.4711 218° Southwest 416 479 23,700 1,620 Climbing Washington Center
02:35PM 39.8550 -74.5617 217° Southwest 421 484 25,400 1,620 Climbing Washington Center
02:36PM 39.7619 -74.6522 217° Southwest 421 484 27,000 1,380 Climbing Washington Center
02:37PM 39.6853 -74.7233 216° Southwest 421 484 28,300 1,200 Climbing Washington Center
02:38PM 39.5650 -74.8028 207° Southwest 434 499 29,400 840 Climbing Washington Center
02:39PM 39.4531 -74.8686 204° Southwest 440 506 30,000 360 Climbing Washington Center
02:40PM 39.3325 -74.9394 204° Southwest 460 529 30,200 540 Climbing Washington Center
02:41PM 39.2100 -75.0103 204° Southwest 474 545 31,100 900 Climbing Washington Center
02:42PM 39.0872 -75.0836 205° Southwest 480 552 32,100 900 Climbing Washington Center
02:43PM 38.9686 -75.1564 206° Southwest 480 552 33,000 900 Climbing Washington Center
02:44PM 38.8503 -75.2317 206° Southwest 480 552 34,000 900 Climbing Washington Center
02:45PM 38.7317 -75.3042 205° Southwest 480 552 34,900 840 Climbing Washington Center
02:46PM 38.6150 -75.3764 206° Southwest 474 545 35,800 780 Climbing Washington Center
02:47PM 38.4961 -75.4483 205° Southwest 474 545 36,500 600 Climbing Washington Center
02:48PM 38.3775 -75.5256 207° Southwest 479 551 37,000 600 Climbing Washington Center
02:49PM 38.2419 -75.6050 205° Southwest 485 558 37,700 600 Climbing Washington Center
02:50PM 38.1189 -75.6789 205° Southwest 491 565 38,200 420 Climbing Washington Center
02:51PM 38.0144 -75.7553 210° Southwest 491 565 38,600 540 Climbing Washington Center
02:52PM 37.8789 -75.8286 203° Southwest 483 556 39,300 540 Climbing Washington Center
02:53PM 37.7808 -75.8886 206° Southwest 483 556 39,700 300 Climbing Washington Center
02:54PM 37.6553 -75.9747 209° Southwest 478 550 40,000 120 Climbing Washington Center
02:55PM 37.5319 -76.0475 205° Southwest 478 550 40,000  Level Washington Center
02:56PM 37.4086 -76.1200 205° Southwest 483 556 40,000  Level Washington Center
02:57PM 37.2686 -76.1947 203° Southwest 488 562 40,100  Climbing Washington Center
02:58PM 37.1431 -76.2719 206° Southwest 493 567 40,000 -60 Descending Washington Center
02:59PM 37.0153 -76.3489 206° Southwest 498 573 40,000  Level Washington Center
03:00PM 36.8897 -76.4231 205° Southwest 503 579 40,000  Level Washington Center
03:01PM 36.7619 -76.4994 206° Southwest 503 579 40,000  Level Washington Center
03:02PM 36.6339 -76.5806 207° Southwest 509 586 40,000  Level Washington Center
03:03PM 36.5061 -76.6514 204° Southwest 509 586 40,000  Level Washington Center
03:04PM 36.3761 -76.7244 204° Southwest 509 586 40,000  Level Washington Center
03:05PM 36.2500 -76.8000 206° Southwest 509 586 40,000  Level Washington Center
03:06PM 36.1219 -76.8753 205° Southwest 504 580 40,000  Level Washington Center
03:07PM 35.9939 -76.9475 205° Southwest 504 580 40,000  Level Washington Center
03:08PM 35.8639 -77.0197 204° Southwest 504 580 40,000  Level Washington Center
03:09PM 35.7356 -77.0917 204° Southwest 504 580 40,000  Level Washington Center
03:10PM 35.6117 -77.1683 207° Southwest 499 574 40,000  Level Washington Center
03:11PM 35.4811 -77.2397 204° Southwest 499 574 40,000  Level Washington Center
03:12PM 35.3486 -77.3136 204° Southwest 510 587 40,000  Level Washington Center
03:13PM 35.2225 -77.3872 205° Southwest 510 587 40,000  Level Washington Center
03:14PM 35.0942 -77.4578 204° Southwest 510 587 40,000  Level Washington Center
03:15PM 34.9658 -77.5283 204° Southwest 510 587 40,000  Level Washington Center
03:16PM 34.8372 -77.6011 205° Southwest 510 587 40,000  Level Washington Center
03:17PM 34.7047 -77.6561 199° South 510 587 40,000  Level Washington Center
03:18PM 34.5664 -77.7031 196° South 510 587 40,000  Level Washington Center
03:19PM 34.4319 -77.7450 194° South 510 587 40,000  Level Washington Center
03:20PM 34.2978 -77.7892 195° South 504 580 40,000  Level Washington Center
03:22PM 34.0883 -77.8553 195° South 510 587 40,000  Level Jacksonville Center
03:23PM 33.9544 -77.8956 194° South 510 587 40,000  Level Jacksonville Center
03:24PM 33.8183 -77.9383 195° South 510 587 40,000  Level Jacksonville Center
03:25PM 33.6825 -77.9833 195° South 510 587 40,000  Level Jacksonville Center
03:26PM 33.5506 -78.0281 196° South 504 580 40,000  Level Jacksonville Center
03:27PM 33.4186 -78.0703 195° South 504 580 40,000  Level Jacksonville Center
03:28PM 33.2825 -78.1122 194° South 504 580 40,000  Level Jacksonville Center
03:29PM 33.1506 -78.1542 195° South 504 580 40,000 -240 Level Jacksonville Center
03:30PM 33.0167 -78.1958 195° South 504 580 39,600 -840 Descending Jacksonville Center
03:31PM 32.8928 -78.2369 196° South 490 564 38,400 -1,500 Descending Jacksonville Center
03:32PM 32.7731 -78.2728 194° South 465 535 36,600 -1,920 Descending Jacksonville Center
03:33PM 32.6533 -78.3108 195° South 455 524 34,600 -1,320 Descending Jacksonville Center
03:34PM 32.5356 -78.3439 193° South 445 512 34,000 -300 Descending Jacksonville Center
03:35PM 32.4203 -78.3817 195° South 440 506 34,000  Level Jacksonville Center
03:36PM 32.3028 -78.4244 197° South 440 506 34,000  Level Jacksonville Center
03:37PM 32.1828 -78.4597 194° South 445 512 34,000  Level Jacksonville Center
03:38PM 32.0611 -78.5000 196° South 450 518 34,000  Level Jacksonville Center
03:39PM 31.9372 -78.5378 195° South 455 524 34,000  Level Jacksonville Center
03:40PM 31.8175 -78.5775 196° South 455 524 34,000  Level Jacksonville Center
03:41PM 31.6975 -78.6125 194° South 449 517 34,000  Level Jacksonville Center
03:42PM 31.5756 -78.6472 194° South 449 517 34,000  Level Jacksonville Center
03:43PM 31.4619 -78.6792 193° South 449 517 34,000  Level Jacksonville Center
03:44PM 31.3403 -78.7236 197° South 449 517 34,000  Level Jacksonville Center
03:45PM 31.2242 -78.7531 192° South 449 517 34,000  Level Jacksonville Center
03:46PM 31.1044 -78.7947 197° South 449 517 34,000  Level Jacksonville Center
03:47PM 30.9806 -78.8317 194° South 446 513 34,000  Level Jacksonville Center
03:48PM 30.8564 -78.8661 193° South 452 520 34,000  Level Jacksonville Center
03:49PM 30.7406 -78.9022 195° South 435 501 34,000  Level Jacksonville Center
03:50PM 30.6228 -78.9386 195° South 441 507 34,000  Level Jacksonville Center
03:51PM 30.5028 -78.9750 195° South 449 517 34,000  Level Jacksonville Center
03:52PM 30.3514 -79.0261 196° South 448 516 34,000  Level Miami Center
03:53PM 30.2422 -79.0742 201° Southwest 447 514 34,000  Level Miami Center
03:54PM 30.1269 -79.1222 200° South 447 514 34,000  Level Miami Center
03:55PM 30.0367 -79.1633 202° Southwest 447 514 34,000  Level Miami Center
03:56PM 29.9125 -79.2253 203° Southwest 447 514 34,000  Level Miami Center
03:57PM 29.7969 -79.2731 200° South 447 514 34,000  Level Miami Center
03:58PM 29.6794 -79.3206 199° South 447 514 34,000  Level Miami Center
03:59PM 29.5658 -79.3728 202° Southwest 447 514 34,000  Level Miami Center
04:00PM 29.4506 -79.4178 199° South 447 514 34,000  Level Miami Center
04:01PM 29.3389 -79.4675 201° Southwest 442 509 34,000  Level Miami Center
04:02PM 29.2294 -79.5197 203° Southwest 436 502 34,000  Level Miami Center
04:03PM 29.1119 -79.5619 197° South 436 502 34,000  Level Miami Center
04:04PM 29.0025 -79.6139 203° Southwest 436 502 34,000  Level Miami Center
04:05PM 28.8928 -79.6728 205° Southwest 436 502 34,000  Level Miami Center
04:06PM 28.7992 -79.7628 220° Southwest 436 502 34,000 -900 Level Miami Center
04:07PM 28.7258 -79.8769 234° Southwest 436 502 32,300 -2,280 Descending Miami Center
04:08PM 28.6503 -80.0050 236° Southwest 450 518 29,500 -2,580 Descending Miami Center
04:09PM 28.5956 -80.1192 241° Southwest 457 526 27,200 -2,340 Descending Miami Center
04:10PM 28.5300 -80.2425 239° Southwest 457 526 24,900 -2,280 Descending Miami Center
04:11PM 28.4683 -80.3753 242° Southwest 444 511 22,700 -1,860 Descending Miami Center
04:12PM 28.4194 -80.4964 245° Southwest 439 505 21,200 -1,380 Descending Miami Center
04:13PM 28.3708 -80.6058 243° Southwest 430 495 20,000 -600 Descending Miami Center
04:14PM 28.3258 -80.7269 247° West 430 495 20,000  Level Miami Center
04:15PM 28.2789 -80.8408 245° Southwest 418 481 20,000  Level Miami Center
04:16PM 28.2053 -80.9300 227° Southwest 395 455 20,000  Level Miami Center
04:17PM 28.1039 -80.9806 204° Southwest 389 448 20,000 -180 Level Miami Center
04:18PM 28.0044 -81.0261 202° Southwest 389 448 19,700 -420 Descending Miami Center
04:19PM 27.9008 -81.0742 202° Southwest 389 448 19,200 -480 Descending Miami Center
04:20PM 27.7864 -81.1286 203° Southwest 406 467 18,800 -480 Descending Miami Center
04:21PM 27.6828 -81.1761 202° Southwest 411 473 18,300 -480 Descending Miami Center
04:22PM 27.5789 -81.2239 202° Southwest 406 467 17,900 -420 Descending Miami Center
04:23PM 27.4753 -81.2714 202° Southwest 406 467 17,500 -480 Descending Miami Center
04:24PM 27.3717 -81.3189 202° Southwest 406 467 17,000 -1,260 Descending Miami Center
04:25PM 27.2764 -81.3619 202° Southwest 406 467 15,000 -2,100 Descending Miami Center
04:26PM 27.1642 -81.4111 201° Southwest 406 467 12,900 -1,980 Descending Miami Center
04:27PM 27.0708 -81.4564 203° Southwest 384 442 11,100 -1,500 Descending Miami Center
04:28PM 26.9808 -81.4622 183° South 348 400 10,000 -600 Descending Miami Center
04:29PM 26.8903 -81.4842 192° South 334 384 10,000  Level Miami Center
04:30PM 26.8042 -81.5086 194° South 329 379 10,000 -240 Level Miami Center
04:31PM 26.7178 -81.5286 192° South 329 379 9,600 -900 Descending Miami Center
04:32PM 26.6397 -81.5556 197° South 313 360 8,300 -1,380 Descending Miami Center
04:33PM 26.5622 -81.5619 184° South 290 334 6,900 -1,260 Descending Miami Center
04:34PM 26.4828 -81.5656 182° South 290 334 5,800 -1,140 Descending Miami Center
04:36PM 26.2666 -81.5953 187° South  Level FlightAware Approximate
04:43PM 26.1500 -81.7667 246° West  Level FlightAware Approximate
04:44PM 26.1524 -81.7756 246° West  Level Estimated
04:45PM 26.1524 -81.7756 246° West  Level Estimated
04:46PM 26.1524 -81.7756 246° West  Level Estimated
04:47PM 26.1524 -81.7756 246° West  Level Estimated